Terminal Aerodrome Forecast
Issued by NWS Cleveland, OH

Home | Current Version | Previous Version | Graphics & Text | Print | Product List | Glossary On
Versions: 1 2 3 4 5 6 7 8 9 10 11 12 13 14 15
287
FTUS41 KCLE 230541
TAFMFD
TAF
KMFD 230541Z 2306/2406 19014KT P6SM BKN025 OVC040
     FM230700 19015KT P6SM BKN015 OVC025
     FM231000 21015KT P6SM VCSH BKN008 OVC015
      TEMPO 2311/2315 5SM -SHRA BKN015
     FM231500 22015G22KT 3SM -SHRA BR VCTS BKN012CB OVC018
      TEMPO 2316/2320 1SM TSRA OVC005CB
     FM232200 24010KT 5SM -SHRA OVC018
     FM240000 25007KT P6SM OVC018=

USA.gov is the U.S. government's official web portal to all federal, state and local government web resources and services.